| Date | Time | Temp. (oF) | Dew Point (oF) | Rel. Hum. (%) | Press. (in.) | Wind Dir. | Wind Speed (mph) | Hourly Rainfall (in.) |
|
|---|---|---|---|---|---|---|---|---|---|
| 1 | miss | miss | miss | miss | miss | miss | miss | miss | |
| 2 | 10/25 | 18:02 | 70 | 64 | 83 | 29.76 | NNW | 0 | 0.00 |
| 3 | miss | miss | miss | miss | miss | miss | miss | miss | |
| 4 | 10/25 | 18:02 | 70 | 64 | 83 | 29.76 | NNW | 0 | 0.00 |
| 5 | miss | miss | miss | miss | miss | miss | miss | miss | |
| 6 | 10/25 | 18:02 | 70 | 64 | 83 | 29.76 | NNW | 0 | 0.00 |
| 7 | 10/25 | 18:00 | 70 | 64 | 83 | 29.76 | NNW | 0 | 0.00 |
| 8 | 10/25 | 17:00 | 71 | 64 | 80 | 29.76 | NNW | 0 | 0.00 |
| 9 | 10/25 | 16:00 | 71 | 64 | 80 | 29.76 | NNW | 0 | 0.00 |
| 10 | 10/25 | 15:00 | 72 | 62 | 73 | 29.80 | NNW | 0 | 0.00 |
| 11 | 10/25 | 14:00 | 72 | 63 | 74 | 29.84 | NNW | 0 | 0.00 |
| 12 | 10/25 | 13:00 | 71 | 64 | 79 | 29.88 | NNW | 0 | 0.00 |
| 13 | 10/25 | 12:00 | 68 | 62 | 83 | 29.91 | NNW | 0 | 0.00 |
| 14 | 10/25 | 11:00 | 64 | 59 | 85 | 29.94 | NNW | 0 | 0.00 |
| 15 | 10/25 | 10:00 | 62 | 57 | 85 | 29.96 | NNW | 0 | 0.00 |
| 16 | 10/25 | 09:00 | 57 | 51 | 83 | 29.97 | NNW | 0 | 0.00 |
| 17 | 10/25 | 08:00 | 52 | 46 | 80 | 29.97 | NNW | 0 | 0.00 |
| 18 | 10/25 | 07:00 | 51 | 45 | 80 | 29.95 | NNW | 0 | 0.00 |
| 19 | 10/25 | 06:00 | 53 | 47 | 83 | 29.96 | NNW | 0 | 0.00 |
| 20 | 10/25 | 05:00 | 52 | 47 | 86 | 29.96 | NNW | 0 | 0.00 |
| 21 | 10/25 | 04:00 | 53 | 49 | 88 | 29.96 | NNW | 0 | 0.00 |
| 22 | 10/25 | 03:00 | 56 | 51 | 85 | 29.97 | NNW | 0 | 0.00 |
| 23 | 10/25 | 02:00 | 57 | 51 | 83 | 29.97 | NNW | 0 | 0.00 |
| 24 | 10/25 | 01:00 | 54 | 50 | 87 | 29.98 | NNW | 0 | 0.00 |